createdAt,value
2022-11-02T00:00:36.459Z,0.00
2022-11-02T00:01:36.506Z,0.00
2022-11-02T00:02:36.485Z,0.00
2022-11-02T00:03:36.405Z,0.00
2022-11-02T00:04:36.385Z,0.00
2022-11-02T00:05:36.367Z,0.00
2022-11-02T00:06:36.350Z,0.00
2022-11-02T00:07:36.326Z,0.00
2022-11-02T00:08:36.308Z,0.00
2022-11-02T00:09:36.288Z,0.00
2022-11-02T00:10:36.268Z,0.00
2022-11-02T00:11:36.269Z,0.00
2022-11-02T00:12:36.229Z,0.00
2022-11-02T00:13:36.214Z,0.00
2022-11-02T00:14:36.190Z,0.00
2022-11-02T00:15:36.172Z,0.00
2022-11-02T00:16:36.152Z,0.00
2022-11-02T00:17:36.137Z,0.00
2022-11-02T00:18:36.119Z,0.00
2022-11-02T00:19:36.100Z,0.00
2022-11-02T00:20:36.081Z,0.00
2022-11-02T00:21:36.062Z,0.00
2022-11-02T00:22:36.054Z,0.00
2022-11-02T00:23:36.029Z,0.00
2022-11-02T00:24:36.007Z,0.00
2022-11-02T00:25:35.985Z,0.00
2022-11-02T00:26:35.969Z,0.00
2022-11-02T00:27:35.971Z,0.00
2022-11-02T00:28:35.929Z,0.00
2022-11-02T00:29:35.917Z,0.00
2022-11-02T00:30:35.891Z,0.00
2022-11-02T00:31:35.871Z,0.00
2022-11-02T00:32:35.851Z,0.00
2022-11-02T00:33:35.835Z,0.00
2022-11-02T00:34:35.827Z,0.00
2022-11-02T00:35:35.798Z,0.00
2022-11-02T00:36:35.778Z,0.00
2022-11-02T00:37:35.763Z,0.00
2022-11-02T00:38:35.740Z,0.00
2022-11-02T00:39:35.721Z,0.00
2022-11-02T00:40:35.701Z,0.00
2022-11-02T00:41:35.681Z,0.00
2022-11-02T00:42:35.664Z,0.00
2022-11-02T00:43:35.670Z,0.00
2022-11-02T00:44:35.623Z,0.00
2022-11-02T00:45:35.610Z,0.00
2022-11-02T00:46:35.587Z,0.00
2022-11-02T00:47:35.570Z,0.00
2022-11-02T00:48:35.547Z,0.00
2022-11-02T00:49:35.527Z,0.00
2022-11-02T00:50:35.512Z,0.00
2022-11-02T00:51:35.489Z,0.00
2022-11-02T00:52:35.470Z,0.00
2022-11-02T00:53:35.460Z,0.00
2022-11-02T00:54:35.433Z,0.00
2022-11-02T00:55:35.415Z,0.00
2022-11-02T00:56:35.395Z,0.00
2022-11-02T00:57:35.380Z,0.00
2022-11-02T00:58:35.355Z,0.00
2022-11-02T00:59:35.397Z,0.00
2022-11-02T01:00:35.324Z,0.00
2022-11-02T01:01:35.409Z,0.00
2022-11-02T01:02:35.386Z,0.00
2022-11-02T01:03:35.264Z,0.00
2022-11-02T01:04:35.245Z,0.00
2022-11-02T01:05:35.224Z,0.00
2022-11-02T01:06:35.207Z,0.00
2022-11-02T01:07:35.189Z,0.00
2022-11-02T01:08:35.170Z,0.00
2022-11-02T01:09:35.150Z,0.00
2022-11-02T01:10:35.138Z,0.00
2022-11-02T01:11:35.107Z,0.00
2022-11-02T01:12:35.092Z,0.00
2022-11-02T01:13:35.071Z,0.00
2022-11-02T01:14:35.053Z,0.00
2022-11-02T01:15:35.063Z,0.00
2022-11-02T01:16:35.064Z,0.00
2022-11-02T01:17:35.004Z,0.00
2022-11-02T01:18:34.973Z,0.00
2022-11-02T01:19:34.958Z,0.00
2022-11-02T01:20:34.936Z,0.00
2022-11-02T01:21:34.919Z,0.00
2022-11-02T01:22:34.903Z,0.00
2022-11-02T01:23:34.884Z,0.00
2022-11-02T01:24:34.863Z,0.00
2022-11-02T01:25:34.845Z,0.00
2022-11-02T01:26:34.833Z,0.00
2022-11-02T01:27:34.812Z,0.00
2022-11-02T01:28:34.787Z,0.00
2022-11-02T01:29:34.767Z,0.00
2022-11-02T01:30:34.753Z,0.00
2022-11-02T01:31:34.762Z,0.00
2022-11-02T01:32:34.707Z,0.00
2022-11-02T01:33:34.689Z,0.00
2022-11-02T01:34:34.674Z,0.00
2022-11-02T01:35:34.651Z,0.00
2022-11-02T01:36:34.631Z,0.00
2022-11-02T01:37:34.615Z,0.00
2022-11-02T01:38:34.597Z,0.00
2022-11-02T01:39:34.577Z,0.00
2022-11-02T01:40:34.561Z,0.00
2022-11-02T01:41:34.537Z,0.00
2022-11-02T01:42:34.518Z,0.00
2022-11-02T01:43:34.515Z,0.00
2022-11-02T01:44:34.481Z,0.00
2022-11-02T01:45:34.465Z,0.00
2022-11-02T01:46:34.450Z,0.00
2022-11-02T01:47:34.444Z,0.00
2022-11-02T01:48:34.409Z,0.00
2022-11-02T01:49:34.390Z,0.00
2022-11-02T01:50:34.365Z,0.00
2022-11-02T01:51:34.352Z,0.00
2022-11-02T01:52:34.329Z,0.00
2022-11-02T01:53:34.312Z,0.00
2022-11-02T01:54:34.294Z,0.00
2022-11-02T01:55:34.273Z,0.00
2022-11-02T01:56:34.255Z,0.00
2022-11-02T01:57:34.231Z,0.00
2022-11-02T01:58:34.213Z,0.00
2022-11-02T01:59:34.195Z,0.00
2022-11-02T02:00:34.178Z,0.00
2022-11-02T02:01:34.228Z,0.00
2022-11-02T02:02:34.297Z,0.00
2022-11-02T02:03:34.135Z,0.00
2022-11-02T02:04:34.103Z,0.00
2022-11-02T02:05:34.081Z,0.00
2022-11-02T02:06:34.062Z,0.00
2022-11-02T02:07:34.045Z,0.00
2022-11-02T02:08:34.024Z,0.00
2022-11-02T02:09:34.008Z,0.00
2022-11-02T02:10:33.993Z,0.00
2022-11-02T02:11:33.974Z,0.00
2022-11-02T02:12:33.949Z,0.00
2022-11-02T02:13:33.930Z,0.00
2022-11-02T02:14:33.920Z,0.00
2022-11-02T02:15:33.889Z,0.00
2022-11-02T02:16:33.873Z,0.00
2022-11-02T02:17:33.847Z,0.00
2022-11-02T02:18:33.829Z,0.00
2022-11-02T02:19:33.832Z,0.00
2022-11-02T02:20:33.791Z,0.00
2022-11-02T02:21:33.774Z,0.00
2022-11-02T02:22:33.751Z,0.00
2022-11-02T02:23:33.734Z,0.00
2022-11-02T02:24:33.715Z,0.00
2022-11-02T02:25:33.702Z,0.00
2022-11-02T02:26:33.679Z,0.00
2022-11-02T02:27:33.657Z,0.00
2022-11-02T02:28:33.641Z,0.00
2022-11-02T02:29:33.624Z,0.00
2022-11-02T02:30:33.601Z,0.00
2022-11-02T02:31:33.581Z,0.00
2022-11-02T02:32:33.558Z,0.00
2022-11-02T02:33:33.544Z,0.00
2022-11-02T02:34:33.521Z,0.00
2022-11-02T02:35:33.524Z,0.00
2022-11-02T02:36:33.586Z,0.00
2022-11-02T02:37:33.470Z,0.00
2022-11-02T02:38:33.448Z,0.00
2022-11-02T02:39:33.431Z,0.00
2022-11-02T02:40:33.406Z,0.00
2022-11-02T02:41:33.397Z,0.00
2022-11-02T02:42:33.371Z,0.00
2022-11-02T02:43:33.352Z,0.00
2022-11-02T02:44:33.328Z,0.00
2022-11-02T02:45:33.313Z,0.00
2022-11-02T02:46:34.678Z,0.00
2022-11-02T02:47:33.274Z,0.00
2022-11-02T02:48:33.256Z,0.00
2022-11-02T02:49:33.233Z,0.00
2022-11-02T02:50:33.217Z,0.00
2022-11-02T02:51:33.214Z,0.00
2022-11-02T02:52:33.172Z,0.00
2022-11-02T02:53:33.158Z,0.00
2022-11-02T02:54:33.141Z,0.00
2022-11-02T02:55:33.115Z,0.00
2022-11-02T02:56:33.213Z,0.00
2022-11-02T02:57:33.080Z,0.00
2022-11-02T02:58:33.068Z,0.00
2022-11-02T02:59:33.038Z,0.00
2022-11-02T03:00:33.021Z,0.00
2022-11-02T03:01:33.087Z,0.00
2022-11-02T03:02:33.098Z,0.00
2022-11-02T03:03:32.963Z,0.00
2022-11-02T03:04:32.941Z,0.00
2022-11-02T03:05:32.924Z,0.00
2022-11-02T03:06:32.911Z,0.00
2022-11-02T03:07:34.244Z,0.00
2022-11-02T03:08:32.867Z,0.00
2022-11-02T03:09:32.848Z,0.00
2022-11-02T03:10:32.825Z,0.00
2022-11-02T03:11:32.807Z,0.00
2022-11-02T03:12:32.796Z,0.00
2022-11-02T03:13:32.773Z,0.00
2022-11-02T03:14:32.750Z,0.00
2022-11-02T03:15:32.731Z,0.00
2022-11-02T03:16:32.711Z,0.00
2022-11-02T03:17:32.695Z,0.00
2022-11-02T03:18:32.672Z,0.00
2022-11-02T03:19:32.650Z,0.00
2022-11-02T03:20:32.635Z,0.00
2022-11-02T03:21:32.616Z,0.00
2022-11-02T03:22:32.596Z,0.00
2022-11-02T03:23:32.596Z,0.00
2022-11-02T03:24:32.556Z,0.00
2022-11-02T03:25:32.538Z,0.00
2022-11-02T03:26:32.517Z,0.00
2022-11-02T03:27:32.500Z,0.00
2022-11-02T03:28:32.479Z,0.00
2022-11-02T03:29:32.459Z,0.00
2022-11-02T03:30:32.435Z,0.00
2022-11-02T03:31:32.424Z,0.00
2022-11-02T03:32:32.404Z,0.00
2022-11-02T03:33:32.384Z,0.00
2022-11-02T03:34:32.363Z,0.00
2022-11-02T03:35:32.358Z,0.00
2022-11-02T03:36:32.318Z,0.00
2022-11-02T03:37:32.308Z,0.00
2022-11-02T03:38:32.286Z,0.00
2022-11-02T03:39:32.287Z,0.00
2022-11-02T03:40:32.243Z,0.00
2022-11-02T03:41:32.232Z,0.00
2022-11-02T03:42:32.205Z,0.00
2022-11-02T03:43:32.190Z,0.00
2022-11-02T03:44:32.171Z,0.00
2022-11-02T03:45:32.152Z,0.00
2022-11-02T03:46:32.135Z,0.00
2022-11-02T03:47:32.112Z,0.00
2022-11-02T03:48:32.098Z,0.00
2022-11-02T03:49:32.079Z,0.00
2022-11-02T03:50:32.057Z,0.00
2022-11-02T03:51:32.035Z,0.00
2022-11-02T03:52:32.022Z,0.00
2022-11-02T03:53:31.996Z,0.00
2022-11-02T03:54:31.985Z,0.00
2022-11-02T03:55:31.979Z,0.00
2022-11-02T03:56:31.936Z,0.00
2022-11-02T03:57:31.922Z,0.00
2022-11-02T03:58:31.902Z,0.00
2022-11-02T03:59:31.881Z,0.00
2022-11-02T04:00:31.862Z,0.00
2022-11-02T04:01:31.980Z,0.00
2022-11-02T04:02:32.001Z,0.00
2022-11-02T04:03:31.818Z,0.00
2022-11-02T04:04:31.786Z,0.00
2022-11-02T04:05:31.769Z,0.00
2022-11-02T04:06:31.749Z,0.00
2022-11-02T04:07:31.728Z,0.00
2022-11-02T04:08:31.705Z,0.00
2022-11-02T04:09:31.695Z,0.00
2022-11-02T04:10:31.674Z,0.00
2022-11-02T04:11:31.671Z,0.00
2022-11-02T04:12:31.638Z,0.00
2022-11-02T04:13:31.618Z,0.00
2022-11-02T04:14:31.600Z,0.00
2022-11-02T04:15:31.575Z,0.00
2022-11-02T04:16:31.561Z,0.00
2022-11-02T04:18:31.516Z,0.00
2022-11-02T04:19:31.496Z,0.00
2022-11-02T04:20:31.478Z,0.00
2022-11-02T04:21:31.461Z,0.00
2022-11-02T04:22:31.441Z,0.00
2022-11-02T04:23:31.424Z,0.00
2022-11-02T04:24:31.404Z,0.00
2022-11-02T04:25:31.382Z,0.00
2022-11-02T04:26:31.358Z,0.00
2022-11-02T04:27:31.363Z,0.00
2022-11-02T04:28:31.325Z,0.00
2022-11-02T04:29:31.309Z,0.00
2022-11-02T04:30:31.287Z,0.00
2022-11-02T04:31:31.267Z,0.00
2022-11-02T04:32:31.250Z,0.00
2022-11-02T04:33:31.226Z,0.00
2022-11-02T04:34:31.210Z,0.00
2022-11-02T04:35:31.185Z,0.00
2022-11-02T04:36:31.164Z,0.00
2022-11-02T04:38:31.137Z,0.00
2022-11-02T04:39:31.112Z,0.00
2022-11-02T04:40:31.101Z,0.00
2022-11-02T04:41:31.077Z,0.00
2022-11-02T04:42:31.054Z,0.00
2022-11-02T04:43:31.057Z,0.00
2022-11-02T04:44:31.013Z,0.00
2022-11-02T04:45:31.000Z,0.00
2022-11-02T04:46:30.979Z,0.00
2022-11-02T04:47:30.962Z,0.00
2022-11-02T04:48:30.941Z,0.00
2022-11-02T04:49:30.937Z,0.00
2022-11-02T04:50:30.897Z,0.00
2022-11-02T04:51:30.875Z,0.00
2022-11-02T04:52:30.862Z,0.00
2022-11-02T04:53:30.848Z,0.00
2022-11-02T04:54:30.823Z,0.00
2022-11-02T04:55:30.800Z,0.00
2022-11-02T04:56:30.785Z,0.00
2022-11-02T04:57:30.848Z,0.00
2022-11-02T04:58:30.745Z,0.00
2022-11-02T04:59:30.748Z,0.00
2022-11-02T05:00:30.709Z,0.00
2022-11-02T05:01:30.802Z,0.00
2022-11-02T05:02:30.820Z,0.00
2022-11-02T05:03:30.645Z,0.00
2022-11-02T05:04:30.631Z,0.00
2022-11-02T05:05:30.607Z,0.00
2022-11-02T05:06:30.591Z,0.00
2022-11-02T05:07:30.575Z,0.00
2022-11-02T05:08:30.549Z,0.00
2022-11-02T05:09:30.532Z,0.00
2022-11-02T05:10:30.517Z,0.00
2022-11-02T05:11:30.492Z,0.00
2022-11-02T05:12:30.473Z,0.00
2022-11-02T05:13:30.461Z,0.00
2022-11-02T05:14:30.518Z,0.00
2022-11-02T05:15:30.475Z,0.00
2022-11-02T05:16:30.404Z,0.00
2022-11-02T05:17:30.377Z,0.00
2022-11-02T05:18:30.363Z,0.00
2022-11-02T05:19:30.337Z,0.00
2022-11-02T05:20:30.318Z,0.00
2022-11-02T05:21:30.304Z,0.00
2022-11-02T05:22:30.281Z,0.00
2022-11-02T05:23:30.261Z,0.00
2022-11-02T05:24:30.246Z,0.00
2022-11-02T05:25:30.222Z,0.00
2022-11-02T05:26:30.202Z,0.00
2022-11-02T05:27:30.182Z,0.00
2022-11-02T05:28:30.167Z,0.00
2022-11-02T05:29:30.146Z,0.00
2022-11-02T05:30:30.128Z,0.00
2022-11-02T05:31:30.128Z,0.00
2022-11-02T05:32:30.084Z,0.00
2022-11-02T05:33:30.831Z,0.00
2022-11-02T05:34:30.052Z,0.00
2022-11-02T05:35:30.029Z,0.00
2022-11-02T05:36:30.012Z,0.00
2022-11-02T05:37:29.992Z,0.00
2022-11-02T05:38:30.023Z,0.00
2022-11-02T05:39:29.956Z,0.00
2022-11-02T05:40:29.935Z,0.00
2022-11-02T05:41:29.914Z,0.00
2022-11-02T05:42:29.898Z,0.00
2022-11-02T05:43:29.876Z,0.00
2022-11-02T05:44:29.852Z,0.00
2022-11-02T05:45:29.843Z,0.00
2022-11-02T05:46:29.819Z,0.00
2022-11-02T05:47:29.819Z,0.00
2022-11-02T05:48:29.774Z,0.00
2022-11-02T05:49:29.760Z,0.00
2022-11-02T05:50:29.742Z,0.00
2022-11-02T05:51:29.724Z,4.00
2022-11-02T05:52:29.700Z,4.00
2022-11-02T05:53:29.684Z,0.00
2022-11-02T05:54:29.666Z,4.00
2022-11-02T05:55:29.639Z,0.00
2022-11-02T05:56:29.620Z,4.00
2022-11-02T05:57:29.612Z,4.00
2022-11-02T05:58:29.583Z,8.00
2022-11-02T05:59:29.565Z,8.00
2022-11-02T06:00:29.548Z,8.00
2022-11-02T06:01:29.616Z,12.00
2022-11-02T06:02:29.509Z,12.00
2022-11-02T06:03:29.515Z,12.00
2022-11-02T06:04:29.467Z,16.00
2022-11-02T06:05:29.543Z,20.00
2022-11-02T06:06:29.433Z,20.00
2022-11-02T06:07:29.406Z,28.00
2022-11-02T06:08:29.389Z,24.00
2022-11-02T06:09:29.365Z,32.00
2022-11-02T06:10:29.349Z,36.00
2022-11-02T06:11:29.329Z,48.00
2022-11-02T06:12:29.317Z,56.00
2022-11-02T06:13:29.290Z,60.00
2022-11-02T06:14:29.271Z,60.00
2022-11-02T06:15:29.250Z,72.00
2022-11-02T06:16:29.231Z,76.00
2022-11-02T06:17:29.213Z,80.00
2022-11-02T06:18:29.196Z,92.00
2022-11-02T06:19:29.247Z,100.00
2022-11-02T06:20:29.155Z,96.00
2022-11-02T06:21:29.133Z,88.00
2022-11-02T06:22:29.111Z,84.00
2022-11-02T06:23:29.092Z,72.00
2022-11-02T06:24:29.071Z,68.00
2022-11-02T06:25:29.058Z,68.00
2022-11-02T06:26:29.031Z,56.00
2022-11-02T06:27:29.012Z,60.00
2022-11-02T06:28:29.008Z,72.00
2022-11-02T06:29:28.973Z,100.00
2022-11-02T06:30:28.955Z,132.00
2022-11-02T06:31:28.938Z,164.00
2022-11-02T06:32:28.914Z,188.00
2022-11-02T06:33:28.902Z,208.00
2022-11-02T06:34:28.876Z,208.00
2022-11-02T06:35:28.878Z,212.00
2022-11-02T06:36:28.847Z,204.00
2022-11-02T06:37:28.835Z,160.00
2022-11-02T06:38:28.841Z,168.00
2022-11-02T06:39:28.841Z,180.00
2022-11-02T06:40:28.778Z,200.00
2022-11-02T06:41:28.746Z,248.00
2022-11-02T06:42:28.720Z,268.00
2022-11-02T06:43:28.722Z,232.00
2022-11-02T06:44:28.676Z,172.00
2022-11-02T06:45:28.668Z,184.00
2022-11-02T06:46:28.644Z,168.00
2022-11-02T06:47:28.635Z,156.00
2022-11-02T06:48:34.409Z,208.00
2022-11-02T06:49:28.590Z,196.00
2022-11-02T06:50:28.566Z,184.00
2022-11-02T06:51:28.566Z,212.00
2022-11-02T06:52:28.529Z,212.00
2022-11-02T06:53:28.513Z,172.00
2022-11-02T06:54:28.495Z,168.00
2022-11-02T06:55:28.473Z,196.00
2022-11-02T06:56:28.452Z,304.00
2022-11-02T06:57:28.432Z,376.00
2022-11-02T06:58:28.411Z,460.00
2022-11-02T06:59:28.392Z,432.00
2022-11-02T07:00:28.664Z,448.00
2022-11-02T07:01:28.635Z,520.00
2022-11-02T07:02:28.413Z,584.00
2022-11-02T07:03:28.341Z,680.00
2022-11-02T07:04:28.294Z,900.00
2022-11-02T07:05:28.281Z,940.00
2022-11-02T07:06:28.250Z,1076.00
2022-11-02T07:07:28.250Z,1056.00
2022-11-02T07:08:28.211Z,1168.00
2022-11-02T07:09:28.196Z,1320.00
2022-11-02T07:10:28.359Z,2024.00
2022-11-02T07:11:28.158Z,2860.00
2022-11-02T07:12:28.138Z,2604.00
2022-11-02T07:13:28.120Z,2724.00
2022-11-02T07:14:28.105Z,2720.00
2022-11-02T07:15:28.110Z,2332.00
2022-11-02T07:16:28.060Z,2464.00
2022-11-02T07:17:32.038Z,2224.00
2022-11-02T07:18:28.023Z,2520.00
2022-11-02T07:19:28.000Z,3680.00
2022-11-02T07:20:28.103Z,3476.00
2022-11-02T07:21:27.971Z,3380.00
2022-11-02T07:22:27.952Z,3352.00
2022-11-02T07:23:27.949Z,7044.00
2022-11-02T07:24:27.919Z,3764.00
2022-11-02T07:25:27.897Z,5784.00
2022-11-02T07:26:27.885Z,3928.00
2022-11-02T07:27:27.848Z,3568.00
2022-11-02T07:28:27.840Z,3216.00
2022-11-02T07:29:27.816Z,3728.00
2022-11-02T07:30:27.925Z,7284.00
2022-11-02T07:31:27.777Z,5392.00
2022-11-02T07:32:27.758Z,4600.00
2022-11-02T07:33:27.740Z,7784.00
2022-11-02T07:34:27.721Z,7564.00
2022-11-02T07:35:27.716Z,3176.00
2022-11-02T07:36:27.680Z,1900.00
2022-11-02T07:37:27.671Z,3196.00
2022-11-02T07:38:27.644Z,1368.00
2022-11-02T07:39:27.644Z,1588.00
2022-11-02T07:40:27.662Z,1104.00
2022-11-02T07:41:27.585Z,940.00
2022-11-02T07:42:27.568Z,972.00
2022-11-02T07:43:27.550Z,800.00
2022-11-02T07:44:27.533Z,692.00
2022-11-02T07:45:27.539Z,692.00
2022-11-02T07:46:27.495Z,1040.00
2022-11-02T07:47:27.480Z,720.00
2022-11-02T07:48:27.458Z,924.00
2022-11-02T07:49:27.446Z,876.00
2022-11-02T07:50:27.523Z,844.00
2022-11-02T07:51:27.401Z,992.00
2022-11-02T07:52:27.392Z,836.00
2022-11-02T07:53:27.364Z,1048.00
2022-11-02T07:54:27.345Z,1468.00
2022-11-02T07:55:27.349Z,1348.00
2022-11-02T07:56:27.302Z,1372.00
2022-11-02T07:57:27.287Z,1312.00
2022-11-02T07:58:27.271Z,1280.00
2022-11-02T07:59:27.250Z,1308.00
2022-11-02T08:00:27.260Z,1260.00
2022-11-02T08:01:27.270Z,1080.00
2022-11-02T08:02:27.304Z,1220.00
2022-11-02T08:03:27.253Z,1156.00
2022-11-02T08:04:27.162Z,1212.00
2022-11-02T08:05:27.128Z,1704.00
2022-11-02T08:06:27.112Z,1516.00
2022-11-02T08:07:27.094Z,1332.00
2022-11-02T08:08:27.076Z,1352.00
2022-11-02T08:09:27.054Z,1304.00
2022-11-02T08:10:27.035Z,1156.00
2022-11-02T08:11:27.037Z,960.00
2022-11-02T08:12:27.000Z,1016.00
2022-11-02T08:13:26.979Z,1000.00
2022-11-02T08:14:26.966Z,1056.00
2022-11-02T08:15:26.945Z,1012.00
2022-11-02T08:16:26.920Z,884.00
2022-11-02T08:17:26.910Z,976.00
2022-11-02T08:18:26.890Z,1140.00
2022-11-02T08:19:26.868Z,1700.00
2022-11-02T08:20:26.849Z,2792.00
2022-11-02T08:21:26.826Z,4852.00
2022-11-02T08:22:26.812Z,4284.00
2022-11-02T08:23:26.788Z,4152.00
2022-11-02T08:24:26.770Z,4824.00
2022-11-02T08:25:26.758Z,4972.00
2022-11-02T08:26:26.732Z,4324.00
2022-11-02T08:27:26.731Z,1652.00
2022-11-02T08:28:26.695Z,1304.00
2022-11-02T08:29:26.678Z,2052.00
2022-11-02T08:30:26.662Z,1624.00
2022-11-02T08:31:26.640Z,1312.00
2022-11-02T08:32:26.620Z,2240.00
2022-11-02T08:33:26.599Z,1716.00
2022-11-02T08:34:26.582Z,2224.00
2022-11-02T08:35:26.596Z,2920.00
2022-11-02T08:36:26.545Z,3836.00
2022-11-02T08:37:26.527Z,2644.00
2022-11-02T08:38:26.503Z,2508.00
2022-11-02T08:39:26.489Z,2560.00
2022-11-02T08:40:26.470Z,4752.00
2022-11-02T08:41:26.465Z,2532.00
2022-11-02T08:42:26.433Z,2820.00
2022-11-02T08:43:26.432Z,2372.00
2022-11-02T08:44:26.392Z,1580.00
2022-11-02T08:45:26.381Z,1212.00
2022-11-02T08:46:26.364Z,1652.00
2022-11-02T08:47:26.339Z,6928.00
2022-11-02T08:48:26.318Z,1608.00
2022-11-02T08:49:26.300Z,2360.00
2022-11-02T08:50:26.280Z,3280.00
2022-11-02T08:51:26.258Z,4700.00
2022-11-02T08:52:26.239Z,5980.00
2022-11-02T08:53:26.228Z,4716.00
2022-11-02T08:54:26.206Z,2976.00
2022-11-02T08:55:26.212Z,2660.00
2022-11-02T08:56:26.169Z,2364.00
2022-11-02T08:57:26.153Z,2368.00
2022-11-02T08:58:26.137Z,2064.00
2022-11-02T08:59:26.134Z,8336.00
2022-11-02T09:00:26.093Z,2448.00
2022-11-02T09:01:26.099Z,3712.00
2022-11-02T09:02:26.127Z,3680.00
2022-11-02T09:03:27.277Z,6508.00
2022-11-02T09:04:26.020Z,4192.00
2022-11-02T09:05:26.004Z,3472.00
2022-11-02T09:06:25.988Z,3564.00
2022-11-02T09:07:25.970Z,3360.00
2022-11-02T09:08:25.955Z,2996.00
2022-11-02T09:09:25.930Z,4048.00
2022-11-02T09:10:25.910Z,2552.00
2022-11-02T09:11:25.891Z,3396.00
2022-11-02T09:12:25.872Z,4952.00
2022-11-02T09:13:25.933Z,18976.00
2022-11-02T09:14:25.924Z,13004.00
2022-11-02T09:15:25.836Z,5172.00
2022-11-02T09:16:25.803Z,4500.00
2022-11-02T09:17:25.783Z,22048.00
2022-11-02T09:18:25.771Z,31840.00
2022-11-02T09:19:25.751Z,28896.00
2022-11-02T09:20:25.740Z,26688.00
2022-11-02T09:21:25.719Z,25792.00
2022-11-02T09:22:25.701Z,22112.00
2022-11-02T09:23:25.689Z,6256.00
2022-11-02T09:24:25.671Z,22176.00
2022-11-02T09:25:25.658Z,6552.00
2022-11-02T09:26:25.643Z,6612.00
2022-11-02T09:27:25.629Z,5312.00
2022-11-02T09:28:25.616Z,7348.00
2022-11-02T09:29:25.605Z,19456.00
2022-11-02T09:30:25.584Z,12812.00
2022-11-02T09:31:25.591Z,15200.00
2022-11-02T09:32:25.554Z,4452.00
2022-11-02T09:33:25.544Z,4220.00
2022-11-02T09:34:25.520Z,3932.00
2022-11-02T09:35:25.511Z,3536.00
2022-11-02T09:36:25.497Z,5600.00
2022-11-02T09:37:25.480Z,6064.00
2022-11-02T09:38:25.466Z,4676.00
2022-11-02T09:39:25.448Z,12444.00
2022-11-02T09:40:25.437Z,15904.00
2022-11-02T09:41:25.416Z,15040.00
2022-11-02T09:42:25.401Z,10736.00
2022-11-02T09:43:29.547Z,5596.00
2022-11-02T09:44:25.375Z,14752.00
2022-11-02T09:45:25.354Z,14300.00
2022-11-02T09:46:25.343Z,4248.00
2022-11-02T09:48:10.785Z,3900.00
2022-11-02T09:48:28.551Z,4732.00
2022-11-02T09:49:25.303Z,4836.00
2022-11-02T09:51:25.272Z,4152.00
2022-11-02T09:52:25.251Z,4336.00
2022-11-02T09:53:25.238Z,3556.00
2022-11-02T09:54:25.227Z,9060.00
2022-11-02T09:55:25.208Z,7916.00
2022-11-02T09:56:25.220Z,4064.00
2022-11-02T09:57:25.183Z,3700.00
2022-11-02T09:58:25.158Z,2948.00
2022-11-02T09:59:25.152Z,2776.00
2022-11-02T10:00:25.134Z,2540.00
2022-11-02T10:01:25.165Z,2336.00
2022-11-02T10:02:25.165Z,2772.00
2022-11-02T10:03:25.103Z,2964.00
2022-11-02T10:04:25.068Z,3080.00
2022-11-02T10:05:25.053Z,4200.00
2022-11-02T10:06:25.042Z,4000.00
2022-11-02T10:07:25.019Z,4308.00
2022-11-02T10:08:25.005Z,5172.00
2022-11-02T10:09:24.985Z,6540.00
2022-11-02T10:10:24.968Z,5300.00
2022-11-02T10:11:25.007Z,4508.00
2022-11-02T10:12:24.941Z,4032.00
2022-11-02T10:13:24.925Z,5944.00
2022-11-02T10:14:24.900Z,4996.00
2022-11-02T10:15:24.887Z,4588.00
2022-11-02T10:16:24.873Z,3980.00
2022-11-02T10:17:24.853Z,8452.00
2022-11-02T10:18:24.836Z,8228.00
2022-11-02T10:19:26.462Z,8140.00
2022-11-02T10:20:24.803Z,8348.00
2022-11-02T10:21:24.801Z,8076.00
2022-11-02T10:22:24.774Z,3980.00
2022-11-02T10:23:24.755Z,7896.00
2022-11-02T10:24:24.744Z,8068.00
2022-11-02T10:25:24.734Z,8152.00
2022-11-02T10:26:24.715Z,4848.00
2022-11-02T10:27:24.697Z,3824.00
2022-11-02T10:28:24.711Z,7716.00
2022-11-02T10:29:24.672Z,8788.00
2022-11-02T10:30:24.662Z,4736.00
2022-11-02T10:31:24.651Z,4036.00
2022-11-02T10:32:24.629Z,3944.00
2022-11-02T10:33:24.616Z,3868.00
2022-11-02T10:34:24.607Z,3584.00
2022-11-02T10:35:41.001Z,7512.00
2022-11-02T10:36:24.576Z,7812.00
2022-11-02T10:37:24.564Z,4000.00
2022-11-02T10:38:24.555Z,6128.00
2022-11-02T10:39:24.539Z,7340.00
2022-11-02T10:40:24.525Z,4000.00
2022-11-02T10:41:24.510Z,6724.00
2022-11-02T10:42:24.498Z,3608.00
2022-11-02T10:43:24.481Z,6804.00
2022-11-02T10:44:24.470Z,7588.00
2022-11-02T10:45:24.462Z,8224.00
2022-11-02T10:46:24.443Z,8144.00
2022-11-02T10:47:24.481Z,5924.00
2022-11-02T10:48:24.415Z,5728.00
2022-11-02T10:49:24.405Z,7576.00
2022-11-02T10:50:24.387Z,7220.00
2022-11-02T10:51:24.400Z,4920.00
2022-11-02T10:52:24.359Z,7236.00
2022-11-02T10:53:40.095Z,7480.00
2022-11-02T10:54:29.390Z,3404.00
2022-11-02T10:55:24.321Z,7048.00
2022-11-02T10:56:24.310Z,3424.00
2022-11-02T10:57:24.296Z,7088.00
2022-11-02T10:58:24.281Z,7036.00
2022-11-02T10:59:24.268Z,7068.00
2022-11-02T11:00:24.270Z,6008.00
2022-11-02T11:01:24.388Z,6256.00
2022-11-02T11:02:24.232Z,3396.00
2022-11-02T11:03:24.213Z,3376.00
2022-11-02T11:04:24.204Z,3604.00
2022-11-02T11:05:24.192Z,3888.00
2022-11-02T11:06:24.179Z,3616.00
2022-11-02T11:07:24.195Z,3704.00
2022-11-02T11:08:24.145Z,7176.00
2022-11-02T11:09:24.129Z,7512.00
2022-11-02T11:10:24.112Z,3616.00
2022-11-02T11:11:24.105Z,3444.00
2022-11-02T11:12:24.084Z,3512.00
2022-11-02T11:16:26.551Z,3200.00
2022-11-02T11:19:40.268Z,3512.00
2022-11-02T11:20:23.969Z,3020.00
2022-11-02T11:21:23.957Z,6180.00
2022-11-02T11:22:23.937Z,7376.00
2022-11-02T11:23:23.945Z,6580.00
2022-11-02T11:24:23.951Z,3672.00
2022-11-02T11:25:27.492Z,3736.00
2022-11-02T11:26:23.874Z,7300.00
2022-11-02T11:27:23.863Z,4556.00
2022-11-02T11:28:23.846Z,2872.00
2022-11-02T11:29:23.832Z,3008.00
2022-11-02T11:30:46.128Z,2600.00
2022-11-02T11:31:23.797Z,2704.00
2022-11-02T11:32:28.820Z,2772.00
2022-11-02T11:33:23.769Z,3076.00
2022-11-02T11:34:23.753Z,2992.00
2022-11-02T11:35:23.742Z,3208.00
2022-11-02T11:36:23.732Z,7352.00
2022-11-02T11:37:23.712Z,2968.00
2022-11-02T11:38:23.703Z,7116.00
2022-11-02T11:39:23.723Z,4072.00
2022-11-02T11:40:23.661Z,4756.00
2022-11-02T11:41:23.650Z,7148.00
2022-11-02T11:42:23.629Z,2940.00
2022-11-02T11:43:23.624Z,3116.00
2022-11-02T11:44:23.599Z,6948.00
2022-11-02T11:45:23.584Z,7360.00
2022-11-02T11:46:23.577Z,7348.00
2022-11-02T11:47:23.551Z,3168.00
2022-11-02T11:48:23.549Z,3740.00
2022-11-02T11:49:35.819Z,7040.00
2022-11-02T11:50:25.990Z,7080.00
2022-11-02T11:51:25.508Z,7144.00
2022-11-02T11:52:30.019Z,7004.00
2022-11-02T11:53:23.465Z,7008.00
2022-11-02T11:54:23.444Z,6892.00
2022-11-02T11:55:23.455Z,4036.00
2022-11-02T11:56:23.414Z,6740.00
2022-11-02T11:57:23.546Z,2640.00
2022-11-02T11:58:23.395Z,4400.00
2022-11-02T11:59:23.378Z,6860.00
2022-11-02T12:00:23.361Z,6944.00
2022-11-02T12:01:23.360Z,6944.00
2022-11-02T12:02:23.472Z,6768.00
2022-11-02T12:03:23.367Z,5372.00
2022-11-02T12:04:23.299Z,6860.00
2022-11-02T12:05:23.284Z,6964.00
2022-11-02T12:06:23.268Z,6980.00
2022-11-02T12:07:23.258Z,7168.00
2022-11-02T12:08:23.240Z,7096.00
2022-11-02T12:09:23.226Z,7008.00
2022-11-02T12:10:23.211Z,7048.00
2022-11-02T12:11:23.230Z,7080.00
2022-11-02T12:12:23.190Z,7004.00
2022-11-02T12:13:23.169Z,7004.00
2022-11-02T12:14:23.160Z,7000.00
2022-11-02T12:15:23.144Z,6976.00
2022-11-02T12:16:23.129Z,6788.00
2022-11-02T12:17:23.122Z,3676.00
2022-11-02T12:18:23.104Z,6768.00
2022-11-02T12:19:23.088Z,5684.00
2022-11-02T12:20:23.072Z,6576.00
2022-11-02T12:21:23.062Z,6924.00
2022-11-02T12:22:23.047Z,6916.00
2022-11-02T12:23:23.036Z,6772.00
2022-11-02T12:24:23.028Z,6856.00
2022-11-02T12:25:23.007Z,6820.00
2022-11-02T12:26:22.995Z,6860.00
2022-11-02T12:27:23.010Z,6832.00
2022-11-02T12:28:22.962Z,6764.00
2022-11-02T12:29:22.955Z,6792.00
2022-11-02T12:30:22.940Z,6824.00
2022-11-02T12:31:22.928Z,6860.00
2022-11-02T12:32:22.912Z,6900.00
2022-11-02T12:33:22.899Z,6904.00
2022-11-02T12:34:22.889Z,6888.00
2022-11-02T12:35:28.935Z,6952.00
2022-11-02T12:36:22.859Z,6776.00
2022-11-02T12:37:41.246Z,6824.00
2022-11-02T12:38:22.835Z,6780.00
2022-11-02T12:39:22.817Z,6736.00
2022-11-02T12:40:22.834Z,1996.00
2022-11-02T12:41:22.790Z,3516.00
2022-11-02T12:42:22.781Z,6676.00
2022-11-02T12:43:22.791Z,6776.00
2022-11-02T12:44:22.750Z,3296.00
2022-11-02T12:45:22.738Z,2120.00
2022-11-02T12:46:22.725Z,6788.00
2022-11-02T12:47:22.718Z,6776.00
2022-11-02T12:48:22.703Z,6796.00
2022-11-02T12:49:22.702Z,4220.00